createdAt,value
2022-10-25T00:00:00.800Z,64.21
2022-10-25T00:05:05.203Z,64.06
2022-10-25T00:10:09.110Z,63.67
2022-10-25T00:15:15.658Z,63.57
2022-10-25T00:20:19.415Z,63.51
2022-10-25T00:25:22.434Z,63.25
2022-10-25T00:30:25.291Z,63.02
2022-10-25T00:35:28.091Z,63.06
2022-10-25T00:40:30.895Z,63.68
2022-10-25T00:45:34.057Z,63.74
2022-10-25T00:50:48.892Z,64.36
2022-10-25T00:55:57.939Z,64.12
2022-10-25T01:01:02.026Z,63.91
2022-10-25T01:06:07.762Z,63.97
2022-10-25T01:11:10.590Z,64.00
2022-10-25T01:16:34.437Z,64.07
2022-10-25T01:21:52.087Z,64.01
2022-10-25T01:27:19.984Z,64.01
2022-10-25T01:32:26.131Z,64.31
2022-10-25T01:37:35.108Z,64.01
2022-10-25T01:42:51.937Z,64.29
2022-10-25T01:48:14.607Z,63.87
2022-10-25T01:53:17.711Z,64.54
2022-10-25T01:58:50.638Z,63.94
2022-10-25T02:04:11.367Z,63.28
2022-10-25T02:09:36.996Z,63.03
2022-10-25T02:14:44.697Z,62.79
2022-10-25T02:19:53.332Z,62.44
2022-10-25T02:24:57.980Z,62.45
2022-10-25T02:30:02.316Z,62.28
2022-10-25T02:35:05.852Z,62.43
2022-10-25T02:40:10.322Z,62.47
2022-10-25T02:45:13.286Z,62.30
2022-10-25T02:50:16.291Z,62.32
2022-10-25T02:55:19.094Z,62.38
2022-10-25T03:00:21.995Z,62.13
2022-10-25T03:05:24.795Z,62.09
2022-10-25T03:10:28.063Z,62.17
2022-10-25T03:15:30.912Z,62.16
2022-10-25T03:20:33.735Z,62.31
2022-10-25T03:25:36.996Z,62.35
2022-10-25T03:30:42.273Z,62.66
2022-10-25T03:35:45.195Z,62.88
2022-10-25T03:40:48.302Z,63.07
2022-10-25T03:45:51.212Z,62.93
2022-10-25T03:50:54.827Z,63.17
2022-10-25T03:55:57.634Z,63.26
2022-10-25T04:01:00.498Z,63.24
2022-10-25T04:06:03.752Z,63.20
2022-10-25T04:11:06.547Z,63.19
2022-10-25T04:16:10.002Z,62.88
2022-10-25T04:21:12.766Z,62.84
2022-10-25T04:26:18.127Z,62.89
2022-10-25T04:31:22.038Z,63.44
2022-10-25T04:36:28.546Z,63.60
2022-10-25T04:41:31.546Z,63.57
2022-10-25T04:46:34.450Z,63.74
2022-10-25T04:51:37.253Z,64.03
2022-10-25T04:56:40.006Z,64.05
2022-10-25T05:01:42.959Z,63.92
2022-10-25T05:06:45.966Z,63.87
2022-10-25T05:11:48.873Z,63.90
2022-10-25T05:16:51.672Z,63.74
2022-10-25T05:21:55.192Z,63.59
2022-10-25T05:26:58.091Z,63.47
2022-10-25T05:32:01.000Z,63.60
2022-10-25T05:37:03.802Z,63.61
2022-10-25T05:42:06.606Z,63.41
2022-10-25T05:47:09.504Z,63.01
2022-10-25T05:52:13.721Z,63.05
2022-10-25T05:57:16.645Z,63.38
2022-10-25T06:02:19.648Z,61.77
2022-10-25T06:07:22.659Z,57.55
2022-10-25T06:12:25.681Z,59.33
2022-10-25T06:17:28.894Z,67.82
2022-10-25T06:22:31.822Z,64.99
2022-10-25T06:27:34.990Z,60.99
2022-10-25T06:32:38.432Z,62.31
2022-10-25T06:37:41.536Z,61.57
2022-10-25T06:42:44.806Z,61.47
2022-10-25T06:47:48.252Z,60.93
2022-10-25T06:52:51.046Z,56.57
2022-10-25T06:57:57.352Z,64.96
2022-10-25T07:03:00.683Z,63.63
2022-10-25T07:08:03.913Z,61.92
2022-10-25T07:13:06.879Z,61.52
2022-10-25T07:18:09.769Z,61.12
2022-10-25T07:23:13.183Z,60.88
2022-10-25T07:28:16.090Z,60.81
2022-10-25T07:33:20.191Z,59.81
2022-10-25T07:38:26.931Z,61.13
2022-10-25T07:43:30.844Z,61.96
2022-10-25T07:48:34.711Z,59.22
2022-10-25T07:53:37.977Z,63.10
2022-10-25T07:58:41.403Z,59.75
2022-10-25T08:03:44.302Z,63.34
2022-10-25T08:08:47.854Z,65.23
2022-10-25T08:13:51.131Z,60.60
2022-10-25T08:18:54.138Z,58.61
2022-10-25T08:23:56.943Z,63.00
2022-10-25T08:29:00.155Z,59.93
2022-10-25T08:34:03.922Z,62.84
2022-10-25T08:39:06.767Z,56.08
2022-10-25T08:44:16.645Z,52.02
2022-10-25T08:49:28.293Z,50.63
2022-10-25T08:54:38.120Z,50.43
2022-10-25T08:59:43.691Z,50.60
2022-10-25T09:04:46.494Z,52.51
2022-10-25T09:10:11.615Z,56.92
2022-10-25T09:15:40.390Z,59.99
2022-10-25T09:20:50.316Z,62.99
2022-10-25T09:25:56.473Z,58.72
2022-10-25T09:31:01.835Z,57.75
2022-10-25T09:36:05.777Z,60.92
2022-10-25T09:41:35.704Z,63.79
2022-10-25T09:47:04.310Z,58.77
2022-10-25T09:52:38.753Z,58.48
2022-10-25T09:57:42.838Z,60.80
2022-10-25T10:02:46.505Z,55.59
2022-10-25T10:07:51.423Z,58.61
2022-10-25T10:13:36.559Z,59.73
2022-10-25T10:18:40.380Z,59.88
2022-10-25T10:23:43.182Z,56.20
2022-10-25T10:28:49.472Z,58.05
2022-10-25T10:33:52.783Z,57.86
2022-10-25T10:39:13.746Z,58.21
2022-10-25T10:44:17.121Z,59.74
2022-10-25T10:49:21.602Z,61.76
2022-10-25T10:54:27.944Z,64.66
2022-10-25T10:59:36.725Z,59.84
2022-10-25T11:04:50.557Z,59.80
2022-10-25T11:09:53.456Z,64.36
2022-10-25T11:14:56.962Z,60.83
2022-10-25T11:20:22.197Z,57.16
2022-10-25T11:25:39.145Z,56.90
2022-10-25T11:31:04.881Z,58.95
2022-10-25T11:36:14.122Z,61.68
2022-10-25T11:41:44.445Z,56.14
2022-10-25T11:47:06.731Z,57.49
2022-10-25T11:52:44.978Z,55.25
2022-10-25T11:58:19.916Z,59.24
2022-10-25T12:03:47.013Z,60.85
2022-10-25T12:08:53.067Z,63.06
2022-10-25T12:14:00.478Z,64.15
2022-10-25T12:19:13.587Z,60.37
2022-10-25T12:24:26.970Z,57.43
2022-10-25T12:29:42.248Z,61.37
2022-10-25T12:34:52.850Z,62.93
2022-10-25T12:39:56.674Z,60.26
2022-10-25T12:45:38.808Z,61.16
2022-10-25T12:51:15.235Z,62.65
2022-10-25T12:56:55.001Z,61.25
2022-10-25T13:02:40.052Z,58.26
2022-10-25T13:07:43.774Z,61.11
2022-10-25T13:13:30.245Z,68.32
2022-10-25T13:18:45.163Z,64.95
2022-10-25T13:23:59.778Z,61.12
2022-10-25T13:29:36.975Z,58.29
2022-10-25T13:34:39.996Z,60.14
2022-10-25T13:39:45.661Z,64.83
2022-10-25T13:45:03.504Z,62.30
2022-10-25T13:50:14.114Z,59.00
2022-10-25T13:55:23.198Z,61.47
2022-10-25T14:00:28.437Z,63.99
2022-10-25T14:05:56.189Z,60.87
2022-10-25T14:11:07.897Z,56.79
2022-10-25T14:16:20.841Z,57.58
2022-10-25T14:21:26.152Z,57.12
2022-10-25T14:26:29.720Z,60.06
2022-10-25T14:31:32.624Z,61.89
2022-10-25T14:36:38.291Z,56.09
2022-10-25T14:41:41.191Z,57.05
2022-10-25T14:46:44.940Z,63.77
2022-10-25T14:51:50.383Z,64.51
2022-10-25T14:57:00.761Z,62.36
2022-10-25T15:02:15.234Z,61.47
2022-10-25T15:07:23.980Z,61.21
2022-10-25T15:12:31.181Z,60.80
2022-10-25T15:17:35.103Z,59.28
2022-10-25T15:22:38.015Z,64.33
2022-10-25T15:27:41.940Z,66.62
2022-10-25T15:32:45.095Z,63.96
2022-10-25T15:37:48.366Z,63.16
2022-10-25T15:42:51.271Z,62.52
2022-10-25T15:47:55.303Z,62.09
2022-10-25T15:52:58.465Z,61.84
2022-10-25T15:58:01.314Z,61.83
2022-10-25T16:03:05.001Z,61.75
2022-10-25T16:08:09.108Z,61.52
2022-10-25T16:13:25.692Z,61.30
2022-10-25T16:18:29.623Z,61.08
2022-10-25T16:23:32.628Z,61.13
2022-10-25T16:28:35.429Z,61.14
2022-10-25T16:33:39.075Z,61.27
2022-10-25T16:38:42.272Z,61.08
2022-10-25T16:43:48.443Z,60.18
2022-10-25T16:48:52.270Z,62.77
2022-10-25T16:53:55.176Z,66.71
2022-10-25T16:58:58.075Z,64.44
2022-10-25T17:04:01.615Z,62.86
2022-10-25T17:09:04.500Z,62.23
2022-10-25T17:14:09.905Z,61.62
2022-10-25T17:19:13.495Z,60.97
2022-10-25T17:24:17.015Z,61.35
2022-10-25T17:29:20.115Z,61.54
2022-10-25T17:34:23.769Z,61.68
2022-10-25T17:39:26.636Z,61.97
2022-10-25T17:44:29.537Z,62.03
2022-10-25T17:49:32.339Z,61.45
2022-10-25T17:54:35.351Z,61.31
2022-10-25T17:59:38.151Z,61.14
2022-10-25T18:04:53.654Z,60.82
2022-10-25T18:10:04.845Z,60.22
2022-10-25T18:15:08.641Z,59.79
2022-10-25T18:20:13.051Z,59.76
2022-10-25T18:25:16.223Z,58.78
2022-10-25T18:30:19.226Z,60.65
2022-10-25T18:35:22.232Z,67.55
2022-10-25T18:40:25.136Z,64.84
2022-10-25T18:45:28.043Z,63.50
2022-10-25T18:50:30.946Z,62.61
2022-10-25T18:55:33.951Z,62.41
2022-10-25T19:00:36.863Z,62.51
2022-10-25T19:05:40.353Z,62.65
2022-10-25T19:10:43.279Z,62.89
2022-10-25T19:15:47.518Z,63.13
2022-10-25T19:20:50.315Z,63.20
2022-10-25T19:25:53.305Z,63.23
2022-10-25T19:30:56.122Z,63.14
2022-10-25T19:36:06.606Z,63.21
2022-10-25T19:41:12.957Z,63.24
2022-10-25T19:46:16.245Z,63.19
2022-10-25T19:51:20.625Z,63.27
2022-10-25T19:56:24.187Z,63.03
2022-10-25T20:01:30.253Z,63.86
2022-10-25T20:06:34.891Z,63.97
2022-10-25T20:11:39.223Z,64.66
2022-10-25T20:16:42.340Z,64.65
2022-10-25T20:21:45.284Z,64.29
2022-10-25T20:26:49.892Z,63.89
2022-10-25T20:31:54.053Z,64.08
2022-10-25T20:36:57.026Z,64.61
2022-10-25T20:42:00.408Z,64.68
2022-10-25T20:47:03.547Z,64.70
2022-10-25T20:52:06.458Z,64.37
2022-10-25T20:57:10.181Z,64.36
2022-10-25T21:02:13.157Z,64.66
2022-10-25T21:07:16.186Z,64.68
2022-10-25T21:12:19.088Z,64.60
2022-10-25T21:17:21.892Z,64.30
2022-10-25T21:22:24.691Z,63.82
2022-10-25T21:27:27.493Z,63.40
2022-10-25T21:32:30.298Z,62.96
2022-10-25T21:37:33.200Z,62.84
2022-10-25T21:42:36.206Z,62.95
2022-10-25T21:47:39.109Z,62.89
2022-10-25T21:52:41.912Z,62.80
2022-10-25T21:57:44.820Z,62.42
2022-10-25T22:02:47.721Z,62.11
2022-10-25T22:07:50.888Z,62.53
2022-10-25T22:12:56.190Z,62.36
2022-10-25T22:17:59.093Z,62.44
2022-10-25T22:23:01.895Z,62.46
2022-10-25T22:28:04.804Z,62.88
2022-10-25T22:33:07.608Z,63.04
2022-10-25T22:38:10.403Z,63.11
2022-10-25T22:43:13.205Z,62.47
2022-10-25T22:48:16.315Z,62.30
2022-10-25T22:53:20.453Z,62.56
2022-10-25T22:58:24.154Z,63.05
2022-10-25T23:03:26.975Z,62.92
2022-10-25T23:08:30.594Z,63.28
2022-10-25T23:13:35.238Z,63.12
2022-10-25T23:18:38.860Z,63.17
2022-10-25T23:23:42.070Z,62.95
2022-10-25T23:28:44.872Z,63.09
2022-10-25T23:33:51.908Z,63.22
2022-10-25T23:38:56.121Z,63.33
2022-10-25T23:43:59.031Z,63.18
2022-10-25T23:49:02.537Z,63.34
2022-10-25T23:54:05.539Z,62.89
2022-10-25T23:59:08.545Z,62.76
